Time;durP1;ratioP1;P1;durP2;ratioP2;P2;SDS_P1;SDS_P2;PMS_P1;PMS_P2;Temp;Humidity;BMP_temperature;BMP_pressure;BME280_temperature;BME280_humidity;BME280_pressure;Samples;Min_cycle;Max_cycle;Signal;HPM_P1;HPM_P2
2022/07/14 00:00:45;;;;;;;3.97;0.80;;;;;;;19.63;47.22;100136.09;4417273;32;34823;-77
2022/07/14 00:03:12;;;;;;;4.85;0.93;;;;;;;19.87;45.75;100142.56;4419257;32;33829;-77
2022/07/14 00:05:40;;;;;;;3.50;1.00;;;;;;;19.82;44.86;100140.75;4422228;32;34449;-77
2022/07/14 00:08:07;;;;;;;3.45;0.93;;;;;;;19.76;44.55;100137.16;4422452;32;34650;-77
2022/07/14 00:10:35;;;;;;;3.05;1.12;;;;;;;19.94;44.14;100136.53;4412585;32;34273;-77
2022/07/14 00:13:02;;;;;;;4.68;1.27;;;;;;;20.81;44.06;100139.19;4418850;32;33957;-78
2022/07/14 00:15:30;;;;;;;6.05;1.00;;;;;;;21.12;44.25;100142.06;4420807;32;33539;-77
2022/07/14 00:17:59;;;;;;;3.65;1.20;;;;;;;20.59;45.23;100144.28;4422368;32;34510;-77
2022/07/14 00:20:27;;;;;;;4.15;1.20;;;;;;;20.22;45.60;100133.34;4409395;32;34708;-77
2022/07/14 00:22:58;;;;;;;4.95;1.20;;;;;;;19.65;46.71;100139.63;4423405;32;34146;-77
2022/07/14 00:25:26;;;;;;;6.68;1.10;;;;;;;19.65;46.82;100134.38;4414452;32;33629;-77
2022/07/14 00:27:54;;;;;;;3.92;0.95;;;;;;;19.43;48.63;100144.59;4419724;32;33885;-77
2022/07/14 00:30:21;;;;;;;2.75;1.00;;;;;;;19.48;48.02;100144.66;4422700;32;33908;-77
2022/07/14 00:32:49;;;;;;;6.53;1.10;;;;;;;19.45;47.66;100142.88;4407674;32;32943;-77
2022/07/14 00:35:17;;;;;;;3.70;1.08;;;;;;;19.26;48.32;100130.34;4407261;32;33576;-77
2022/07/14 00:37:44;;;;;;;7.90;1.05;;;;;;;19.54;47.28;100146.47;4420935;32;33985;-77
2022/07/14 00:40:12;;;;;;;3.42;1.00;;;;;;;19.76;46.96;100138.06;4419477;32;33923;-77
2022/07/14 00:42:44;;;;;;;1.62;0.90;;;;;;;19.58;46.91;100137.78;4421709;32;34934;-77
2022/07/14 00:45:14;;;;;;;2.45;0.80;;;;;;;19.34;47.54;100139.19;4421903;32;33762;-77
2022/07/14 00:47:43;;;;;;;5.05;1.17;;;;;;;19.36;47.42;100148.00;4421300;32;34089;-77
2022/07/14 00:50:12;;;;;;;5.95;1.30;;;;;;;19.44;47.59;100141.09;4421706;32;33670;-77
2022/07/14 00:52:44;;;;;;;2.15;0.90;;;;;;;19.61;46.57;100137.84;4401126;32;34164;-77
2022/07/14 00:55:12;;;;;;;6.82;1.20;;;;;;;19.65;45.91;100134.38;4421779;32;33513;-77
2022/07/14 00:57:41;;;;;;;2.08;1.12;;;;;;;19.65;46.10;100137.88;4420047;32;33884;-77
2022/07/14 01:00:13;;;;;;;3.00;0.98;;;;;;;19.80;45.95;100131.09;4408479;32;34726;-77
2022/07/14 01:02:42;;;;;;;2.12;1.00;;;;;;;19.87;46.13;100132.91;4419857;32;34297;-77
2022/07/14 01:05:10;;;;;;;2.42;1.00;;;;;;;19.73;46.59;100137.12;4419662;32;34341;-77
2022/07/14 01:07:38;;;;;;;2.33;0.93;;;;;;;19.89;46.13;100132.94;4419119;32;33238;-77
2022/07/14 01:10:06;;;;;;;1.83;0.93;;;;;;;19.96;45.92;100137.44;4406807;32;33889;-77
2022/07/14 01:12:34;;;;;;;1.90;0.90;;;;;;;19.80;46.30;100139.88;4420507;32;34775;-77
2022/07/14 01:15:03;;;;;;;2.85;0.90;;;;;;;19.64;46.83;100137.84;4408558;32;34283;-77
2022/07/14 01:17:31;;;;;;;3.95;1.00;;;;;;;19.63;47.29;100139.59;4423356;32;34622;-77
2022/07/14 01:19:59;;;;;;;3.40;1.42;;;;;;;19.53;46.59;100139.44;4423593;32;34322;-77
2022/07/14 01:22:26;;;;;;;5.95;1.12;;;;;;;19.52;46.87;100145.56;4410028;32;34287;-77
2022/07/14 01:24:54;;;;;;;2.22;0.90;;;;;;;19.67;46.50;100140.53;4415472;32;34263;-77
2022/07/14 01:27:21;;;;;;;3.95;0.95;;;;;;;19.87;45.92;100132.06;4423580;32;33907;-77
2022/07/14 01:29:49;;;;;;;3.95;0.98;;;;;;;19.83;45.77;100134.63;4423554;32;34146;-77
2022/07/14 01:32:17;;;;;;;2.65;1.00;;;;;;;19.91;45.83;100132.09;4420441;32;34417;-77
2022/07/14 01:34:44;;;;;;;2.90;1.20;;;;;;;19.99;45.99;100140.06;4423580;32;33839;-77
2022/07/14 01:37:12;;;;;;;3.30;1.30;;;;;;;20.34;45.28;100134.31;4423681;32;33847;-77
2022/07/14 01:39:40;;;;;;;4.03;0.90;;;;;;;19.79;46.76;100131.97;4423893;32;34735;-77
2022/07/14 01:42:08;;;;;;;2.17;1.00;;;;;;;19.47;47.52;100134.12;4423150;32;34186;-77
2022/07/14 01:44:35;;;;;;;1.83;0.85;;;;;;;19.99;46.13;100134.81;4410577;32;33191;-77
2022/07/14 01:47:04;;;;;;;4.78;1.12;;;;;;;19.73;46.42;100132.75;4424125;32;34547;-77
2022/07/14 01:49:32;;;;;;;3.78;1.17;;;;;;;19.79;46.18;100135.47;4423352;32;34560;-77
2022/07/14 01:52:00;;;;;;;2.70;0.88;;;;;;;19.59;46.90;100129.91;4410290;32;33956;-77
2022/07/14 01:54:29;;;;;;;3.28;1.27;;;;;;;19.80;46.02;100125.84;4423661;32;32175;-77
2022/07/14 01:56:57;;;;;;;8.90;1.40;;;;;;;19.65;46.62;100129.13;4423266;32;34649;-77
2022/07/14 01:59:25;;;;;;;2.78;0.98;;;;;;;19.81;46.22;100133.72;4422960;32;34316;-77
2022/07/14 02:01:54;;;;;;;3.58;1.12;;;;;;;19.83;46.35;100129.38;4422691;32;34806;-77
2022/07/14 02:04:22;;;;;;;4.93;1.15;;;;;;;19.58;46.94;100124.63;4421953;32;33243;-77
2022/07/14 02:06:54;;;;;;;3.65;1.10;;;;;;;20.22;45.60;100128.09;4421109;32;34366;-76
2022/07/14 02:12:10;;;;;;;3.35;0.90;;;;;;;19.76;46.42;100132.81;4408673;32;35004;-76
2022/07/14 02:12:10;;;;;;;3.08;0.95;;;;;;;20.33;45.08;100132.56;4418301;32;34063;-77
2022/07/14 02:14:38;;;;;;;3.95;1.20;;;;;;;20.08;45.38;100131.44;4421437;32;33856;-77
2022/07/14 02:17:06;;;;;;;3.05;1.37;;;;;;;20.22;45.14;100133.34;4420991;32;33710;-77
2022/07/14 02:19:35;;;;;;;4.87;1.10;;;;;;;19.99;45.35;100129.56;4421942;32;34691;-77
2022/07/14 02:22:04;;;;;;;3.20;1.20;;;;;;;20.19;44.83;100125.41;4419662;32;33810;-77
2022/07/14 02:24:31;;;;;;;3.65;1.30;;;;;;;20.10;45.22;100122.69;4424524;32;33547;-77
2022/07/14 02:27:00;;;;;;;6.15;1.37;;;;;;;20.24;44.90;100125.44;4422452;32;33188;-77
2022/07/14 02:29:27;;;;;;;3.15;1.33;;;;;;;20.13;45.26;100127.09;4422106;32;33893;-77
2022/07/14 02:31:55;;;;;;;4.60;1.02;;;;;;;20.23;45.08;100132.47;4422150;32;34722;-77
2022/07/14 02:34:22;;;;;;;2.55;0.80;;;;;;;20.26;45.04;100134.25;4421386;32;34176;-77
2022/07/14 02:36:52;;;;;;;4.25;1.45;;;;;;;20.23;45.13;100127.22;4421691;32;33851;-77
2022/07/14 02:39:19;;;;;;;3.55;0.98;;;;;;;20.17;45.54;100134.16;4422570;32;33949;-77
2022/07/14 02:41:49;;;;;;;2.40;1.10;;;;;;;20.21;45.78;100134.19;4421766;32;34952;-77
2022/07/14 02:44:17;;;;;;;5.43;1.80;;;;;;;19.89;46.63;100138.22;4395068;32;31892;-77
2022/07/14 02:46:45;;;;;;;3.37;1.20;;;;;;;20.23;46.05;100135.09;4407347;32;32392;-77
2022/07/14 02:49:13;;;;;;;4.10;1.20;;;;;;;20.11;46.33;100139.31;4421693;32;33558;-77
2022/07/14 02:51:41;;;;;;;3.05;1.17;;;;;;;20.10;46.72;100142.84;4419060;32;34145;-77
2022/07/14 02:54:08;;;;;;;3.33;1.30;;;;;;;20.08;46.91;100148.06;4421889;32;33143;-77
2022/07/14 02:56:37;;;;;;;4.78;1.35;;;;;;;20.04;47.41;100143.66;4421113;32;33805;-77
2022/07/14 02:59:06;;;;;;;3.53;1.37;;;;;;;19.95;47.74;100146.16;4406904;32;80809;-77
2022/07/14 03:01:34;;;;;;;3.62;1.40;;;;;;;19.91;48.01;100152.25;4421597;32;33887;-77
2022/07/14 03:04:03;;;;;;;4.30;1.58;;;;;;;20.06;47.65;100147.19;4422118;32;33504;-77
2022/07/14 03:06:31;;;;;;;3.10;1.30;;;;;;;19.92;48.10;100148.78;4420556;32;34004;-77
2022/07/14 03:08:58;;;;;;;5.57;1.70;;;;;;;19.96;48.10;100150.56;4423310;32;33912;-76
2022/07/14 03:11:26;;;;;;;4.30;1.30;;;;;;;19.94;48.31;100147.91;4406083;32;33773;-76
2022/07/14 03:13:54;;;;;;;4.15;1.27;;;;;;;19.96;48.10;100150.56;4420899;32;33175;-76
2022/07/14 03:16:21;;;;;;;3.03;1.20;;;;;;;19.89;48.37;100154.84;4421053;32;33477;-77
2022/07/14 03:18:49;;;;;;;3.10;1.30;;;;;;;20.09;48.00;100152.50;4421048;32;34775;-77
2022/07/14 03:21:19;;;;;;;8.07;1.42;;;;;;;20.39;47.31;100145.78;4422029;32;33321;-77
2022/07/14 03:23:48;;;;;;;4.45;1.27;;;;;;;20.11;47.97;100153.38;4420339;32;33255;-77
2022/07/14 03:26:16;;;;;;;2.80;1.20;;;;;;;20.19;47.92;100143.81;4421961;32;34015;-77
2022/07/14 03:28:44;;;;;;;3.17;1.20;;;;;;;20.21;48.21;100142.09;4422539;32;34722;-77
2022/07/14 03:31:11;;;;;;;6.05;1.40;;;;;;;20.09;48.56;100146.31;4422593;32;34457;-77
2022/07/14 03:33:40;;;;;;;5.45;1.48;;;;;;;20.01;48.97;100143.59;4408548;32;34294;-77
2022/07/14 03:36:07;;;;;;;2.40;1.12;;;;;;;20.17;48.69;100145.56;4422682;32;33912;-77
2022/07/14 03:38:35;;;;;;;3.83;1.30;;;;;;;20.28;48.57;100150.94;4421714;32;34010;-77
2022/07/14 03:41:05;;;;;;;6.93;1.75;;;;;;;20.13;49.17;100154.28;4408208;32;34091;-77
2022/07/14 03:43:34;;;;;;;3.80;1.62;;;;;;;20.15;49.33;100157.81;4408820;32;34366;-77
2022/07/14 03:46:03;;;;;;;5.15;1.48;;;;;;;20.04;49.56;100144.53;4422684;32;34120;-77
2022/07/14 03:48:32;;;;;;;4.07;1.67;;;;;;;20.28;49.05;100147.41;4412966;32;34993;-76
2022/07/14 03:51:01;;;;;;;5.00;1.45;;;;;;;19.96;50.18;100155.84;4422557;32;34024;-77
2022/07/14 03:53:30;;;;;;;4.43;1.42;;;;;;;19.87;50.95;100160.97;4409023;32;34385;-76
2022/07/14 03:55:58;;;;;;;3.45;1.60;;;;;;;19.37;52.23;100165.53;4422437;32;33893;-76
2022/07/14 03:58:27;;;;;;;4.85;1.30;;;;;;;19.28;52.77;100160.13;4422602;32;33973;-77
2022/07/14 04:00:54;;;;;;;3.83;1.30;;;;;;;19.58;51.95;100157.03;4421884;32;34212;-76
2022/07/14 04:03:22;;;;;;;5.07;1.40;;;;;;;19.65;51.76;100155.41;4423173;32;33289;-76
2022/07/14 04:05:50;;;;;;;3.30;1.30;;;;;;;19.88;50.88;100154.88;4423188;32;33781;-76
2022/07/14 04:08:18;;;;;;;3.08;1.35;;;;;;;20.06;50.40;100156.81;4409199;32;34790;-77
2022/07/14 04:10:46;;;;;;;2.60;1.55;;;;;;;19.83;51.39;100160.03;4421920;32;34197;-77
2022/07/14 04:13:15;;;;;;;6.00;1.65;;;;;;;19.84;51.60;100154.81;4417814;32;33725;-77
2022/07/14 04:15:43;;;;;;;4.25;1.55;;;;;;;20.03;51.22;100162.94;4416637;32;34517;-77
2022/07/14 04:18:12;;;;;;;4.87;1.40;;;;;;;20.09;51.13;100162.09;4421814;32;33914;-77
2022/07/14 04:20:47;;;;;;;6.32;2.00;;;;;;;20.18;50.86;100151.69;4422163;32;34339;-77
2022/07/14 04:23:15;;;;;;;;;;;;;;;20.05;51.03;100145.44;4408400;32;33678;-77
2022/07/14 04:25:42;;;;;;;4.07;1.55;;;;;;;20.12;51.33;100155.13;4418830;32;34015;-77
2022/07/14 04:28:10;;;;;;;3.22;1.50;;;;;;;20.12;51.14;100154.25;4419527;32;34782;-77
2022/07/14 04:30:39;;;;;;;5.47;1.70;;;;;;;20.47;50.54;100153.75;4405971;32;33849;-77
2022/07/14 04:33:09;;;;;;;5.45;1.40;;;;;;;20.35;50.89;100149.25;4421549;32;33766;-77
2022/07/14 04:35:38;;;;;;;4.15;1.73;;;;;;;20.39;50.69;100148.41;4422099;32;33880;-77
2022/07/14 04:38:06;;;;;;;7.30;1.60;;;;;;;20.60;50.30;100151.28;4420912;32;34612;-77
2022/07/14 04:40:33;;;;;;;4.82;1.62;;;;;;;20.61;50.47;100147.81;4421981;32;34171;-77
2022/07/14 04:43:01;;;;;;;3.95;1.77;;;;;;;20.59;50.18;100148.59;4422253;32;33721;-77
2022/07/14 04:45:30;;;;;;;5.95;2.00;;;;;;;20.89;49.87;100142.78;4420830;32;34099;-77
2022/07/14 04:47:57;;;;;;;4.87;1.55;;;;;;;20.99;49.64;100147.22;4420810;32;33767;-77
2022/07/14 04:53:11;;;;;;;4.90;1.67;;;;;;;21.18;49.14;100150.88;4423902;32;34047;-77
2022/07/14 04:55:39;;;;;;;4.28;1.73;;;;;;;21.41;48.82;100145.78;4424337;32;34012;-77
2022/07/14 04:58:07;;;;;;;5.07;1.50;;;;;;;21.21;49.22;100156.19;4419111;32;34025;-77
2022/07/14 05:00:34;;;;;;;3.85;1.52;;;;;;;21.12;49.16;100157.88;4422853;32;34150;-77
2022/07/14 05:03:03;;;;;;;5.10;1.60;;;;;;;21.46;48.32;100155.50;4418863;32;33766;-77
2022/07/14 05:05:31;;;;;;;6.30;1.60;;;;;;;21.51;48.36;100154.66;4422934;32;33924;-77
2022/07/14 05:07:58;;;;;;;4.20;1.60;;;;;;;21.32;49.22;100148.34;4420851;32;33971;-77
2022/07/14 05:10:26;;;;;;;4.97;1.77;;;;;;;21.44;49.02;100147.59;4408175;32;32430;-77
2022/07/14 05:12:54;;;;;;;5.93;1.75;;;;;;;21.63;47.87;100142.41;4406778;32;33481;-77
2022/07/14 05:15:22;;;;;;;3.67;1.60;;;;;;;21.83;47.23;100150.41;4422986;32;33874;-77
2022/07/14 05:17:50;;;;;;;5.05;1.58;;;;;;;22.09;46.89;100154.03;4408912;32;34000;-77
2022/07/14 05:20:18;;;;;;;4.50;1.90;;;;;;;22.02;47.11;100157.56;4421254;32;32578;-78
2022/07/14 05:22:46;;;;;;;5.00;1.65;;;;;;;22.26;47.32;100150.62;4405916;32;34294;-77
2022/07/14 05:25:14;;;;;;;3.90;1.50;;;;;;;22.12;48.04;100159.34;4421197;32;34615;-76
2022/07/14 05:27:42;;;;;;;7.32;1.80;;;;;;;22.77;47.74;100154.22;4420368;32;34079;-76
2022/07/14 05:30:11;;;;;;;5.90;1.60;;;;;;;22.64;46.79;100152.44;4420615;32;34857;-75
2022/07/14 05:32:40;;;;;;;4.00;1.50;;;;;;;23.52;44.85;100150.66;4422111;32;33225;-76
2022/07/14 05:35:08;;;;;;;3.20;1.50;;;;;;;23.09;45.15;100156.03;4420470;32;33552;-76
2022/07/14 05:37:36;;;;;;;6.07;1.40;;;;;;;23.10;44.43;100153.38;4427908;32;33936;-76
2022/07/14 05:40:04;;;;;;;4.30;1.70;;;;;;;23.28;43.83;100149.81;4425978;32;34734;-76
2022/07/14 05:42:32;;;;;;;5.53;1.60;;;;;;;23.36;43.66;100152.47;4423819;32;33403;-77
2022/07/14 05:44:59;;;;;;;3.70;1.35;;;;;;;24.07;42.92;100134.63;4407489;32;33948;-76
2022/07/14 05:47:27;;;;;;;4.37;1.30;;;;;;;24.31;41.10;100148.59;4417236;32;33921;-76
2022/07/14 05:49:55;;;;;;;3.12;1.30;;;;;;;24.14;42.03;100139.00;4423072;32;34559;-76
2022/07/14 05:52:23;;;;;;;3.37;1.30;;;;;;;24.34;41.27;100133.56;4422470;32;33578;-76
2022/07/14 05:54:51;;;;;;;2.03;1.10;;;;;;;25.00;39.96;100144.59;4423719;32;35484;-76
2022/07/14 05:57:19;;;;;;;4.68;1.50;;;;;;;24.71;39.89;100137.78;4417341;32;33860;-75
2022/07/14 05:59:47;;;;;;;4.18;1.33;;;;;;;25.26;39.48;100132.00;4421736;32;34244;-75
2022/07/14 06:02:15;;;;;;;5.00;1.30;;;;;;;24.50;40.54;100134.34;4414275;32;33720;-75
2022/07/14 06:04:43;;;;;;;4.45;1.17;;;;;;;24.93;40.10;100123.44;4397420;32;32817;-76
2022/07/14 06:07:11;;;;;;;2.80;1.30;;;;;;;25.49;39.22;100128.22;4415336;32;34553;-76
2022/07/14 06:09:39;;;;;;;5.85;1.40;;;;;;;25.62;39.31;100123.69;4409947;32;33735;-75
2022/07/14 06:12:08;;;;;;;3.95;1.35;;;;;;;26.09;37.62;100119.56;4414926;32;33765;-75
2022/07/14 06:14:36;;;;;;;4.55;1.40;;;;;;;26.21;37.18;100118.50;4404461;32;34735;-75
2022/07/14 06:17:04;;;;;;;5.65;1.37;;;;;;;25.79;37.63;100115.50;4408884;32;34422;-75
2022/07/14 06:19:32;;;;;;;3.67;1.40;;;;;;;25.92;38.11;100111.81;4420029;32;33911;-75
2022/07/14 06:22:03;;;;;;;3.03;1.00;;;;;;;26.02;37.78;100118.78;4406766;32;32291;-75
2022/07/14 06:24:33;;;;;;;7.80;1.77;;;;;;;26.03;38.34;100114.34;4422321;32;34189;-75
2022/07/14 06:27:01;;;;;;;7.57;1.30;;;;;;;25.41;38.68;100119.50;4410892;32;33897;-75
2022/07/14 06:29:29;;;;;;;3.47;1.05;;;;;;;25.60;38.72;100118.37;4421330;32;34145;-75
2022/07/14 06:31:58;;;;;;;3.40;0.95;;;;;;;26.37;36.52;100114.75;4397044;32;33936;-75
2022/07/14 06:34:25;;;;;;;3.55;0.93;;;;;;;25.57;38.20;100117.53;4419804;32;34143;-76
2022/07/14 06:36:53;;;;;;;2.72;1.10;;;;;;;26.52;37.22;100118.03;4422272;32;34612;-77
2022/07/14 06:39:21;;;;;;;3.53;1.37;;;;;;;26.87;36.17;100117.53;4422879;32;34080;-75
2022/07/14 06:41:49;;;;;;;2.17;1.20;;;;;;;27.02;35.38;100108.37;4420518;32;34110;-78
2022/07/14 06:44:20;;;;;;;2.33;1.00;;;;;;;27.33;34.55;100115.81;4396995;32;32980;-76
2022/07/14 06:46:54;;;;;;;2.25;0.90;;;;;;;26.82;33.88;100111.41;4420993;32;33985;-76
2022/07/14 06:49:22;;;;;;;4.68;0.90;;;;;;;27.29;32.63;100114.13;4419307;32;33762;-77
2022/07/14 06:51:49;;;;;;;2.15;0.90;;;;;;;27.32;32.95;100111.44;4421383;32;34470;-74
2022/07/14 06:54:23;;;;;;;7.50;1.33;;;;;;;27.00;33.14;100111.06;4421912;32;33888;-75
2022/07/14 06:56:50;;;;;;;4.70;1.30;;;;;;;27.61;32.43;100114.38;4420730;32;34441;-77
2022/07/14 06:59:18;;;;;;;2.10;0.90;;;;;;;27.25;33.03;100114.22;4418536;32;33255;-78
2022/07/14 07:01:46;;;;;;;1.98;1.08;;;;;;;27.69;31.93;100105.37;4422164;32;34240;-77
2022/07/14 07:04:13;;;;;;;1.25;0.62;;;;;;;27.83;30.68;100108.59;4408757;32;34730;-78
2022/07/14 07:06:44;;;;;;;3.65;0.90;;;;;;;27.69;30.91;100116.03;4415882;32;34450;-78
2022/07/14 07:09:15;;;;;;;2.85;1.00;;;;;;;28.11;30.43;100113.38;4419556;32;34620;-77
2022/07/14 07:11:49;;;;;;;2.62;0.80;;;;;;;28.05;30.39;100103.75;4417438;32;35162;-78
2022/07/14 07:14:18;;;;;;;2.42;0.70;;;;;;;28.61;30.07;100111.34;4402026;32;33715;-78
2022/07/14 07:16:47;;;;;;;2.62;1.00;;;;;;;27.94;30.73;100108.44;4411094;32;32130;-78
2022/07/14 07:19:15;;;;;;;3.15;0.93;;;;;;;27.96;30.99;100106.59;4399997;32;34094;-77
2022/07/14 07:21:43;;;;;;;2.22;1.08;;;;;;;28.28;30.76;100103.22;4419753;32;34239;-77
2022/07/14 07:24:11;;;;;;;4.57;1.00;;;;;;;28.10;31.37;100101.84;4420100;32;33822;-78
2022/07/14 07:26:40;;;;;;;2.67;1.20;;;;;;;29.67;29.75;100105.00;4405787;32;32458;-77
2022/07/14 07:29:08;;;;;;;5.90;0.95;;;;;;;30.58;28.42;100092.44;4420942;32;33432;-77
2022/07/14 07:31:37;;;;;;;2.67;1.00;;;;;;;31.55;26.37;100095.31;4422008;32;33587;-75
2022/07/14 07:34:05;;;;;;;2.83;1.17;;;;;;;30.18;28.30;100088.34;4418570;32;33904;-78
2022/07/14 07:36:33;;;;;;;3.87;1.45;;;;;;;32.19;26.33;100096.47;4415106;32;34657;-77
2022/07/14 07:39:00;;;;;;;2.22;0.90;;;;;;;33.13;24.36;100091.72;4417563;32;34009;-77
2022/07/14 07:41:28;;;;;;;2.72;0.90;;;;;;;33.92;23.07;100086.38;4404547;32;34133;-77
2022/07/14 07:43:57;;;;;;;2.45;1.00;;;;;;;34.62;22.45;100082.97;4410756;32;33925;-77
2022/07/14 07:46:26;;;;;;;2.40;0.90;;;;;;;33.42;23.02;100082.41;4415652;32;34195;-77
2022/07/14 07:48:53;;;;;;;2.85;0.80;;;;;;;33.34;24.01;100079.16;4409650;32;34170;-75
2022/07/14 07:51:21;;;;;;;4.95;1.15;;;;;;;33.41;23.43;100076.12;4422186;32;33521;-78
2022/07/14 07:53:49;;;;;;;5.05;1.02;;;;;;;32.63;24.72;100083.09;4421571;32;33561;-76
2022/07/14 07:56:16;;;;;;;2.90;1.00;;;;;;;32.58;24.84;100077.03;4410969;32;33829;-77
2022/07/14 07:58:44;;;;;;;3.33;0.93;;;;;;;32.59;24.07;100080.59;4420539;32;34283;-77
2022/07/14 08:01:12;;;;;;;6.25;1.05;;;;;;;34.34;22.86;100067.31;4420613;32;34151;-78
2022/07/14 08:03:40;;;;;;;2.70;1.00;;;;;;;35.04;21.57;100068.28;4402995;32;34673;-77
2022/07/14 08:06:11;;;;;;;2.08;1.02;;;;;;;35.48;21.57;100071.37;4411695;32;33900;-77
2022/07/14 08:08:59;;;;;;;2.97;1.10;;;;;;;35.35;20.02;100066.69;4408722;32;34124;-77
2022/07/14 08:11:27;;;;;;;3.47;1.12;;;;;;;35.71;20.78;100057.53;4413235;32;33345;-77
2022/07/14 08:13:54;;;;;;;2.75;0.90;;;;;;;34.56;21.44;100056.38;4421065;32;33907;-77
2022/07/14 08:16:22;;;;;;;3.08;0.90;;;;;;;32.81;22.79;100064.47;4408225;32;34499;-78
2022/07/14 08:18:52;;;;;;;2.60;1.05;;;;;;;33.10;22.78;100056.03;4415541;32;33896;-77
2022/07/14 08:21:20;;;;;;;2.50;0.80;;;;;;;31.91;23.58;100051.09;4416743;32;32716;-77
2022/07/14 08:23:48;;;;;;;1.85;0.82;;;;;;;34.34;22.33;100055.69;4414739;32;33999;-79
2022/07/14 08:26:15;;;;;;;1.85;0.90;;;;;;;34.43;21.63;100049.88;4421768;32;33938;-78
2022/07/14 08:28:43;;;;;;;1.62;0.80;;;;;;;34.32;22.86;100058.47;4419439;32;34615;-78
2022/07/14 08:31:11;;;;;;;5.07;1.12;;;;;;;32.91;22.50;100057.75;4418325;32;33440;-77
2022/07/14 08:33:39;;;;;;;3.67;0.98;;;;;;;32.86;22.49;100046.38;4417854;32;34274;-78
2022/07/14 08:36:07;;;;;;;3.45;1.10;;;;;;;33.36;23.01;100040.59;4411608;32;34011;-78
2022/07/14 08:38:35;;;;;;;6.95;1.92;;;;;;;32.75;22.75;100049.50;4420598;32;34280;-77
2022/07/14 08:41:02;;;;;;;1.67;0.70;;;;;;;32.55;23.11;100047.66;4411515;32;33815;-77
2022/07/14 08:43:30;;;;;;;2.55;0.82;;;;;;;32.90;22.39;100053.34;4408959;32;34298;-77
2022/07/14 08:46:00;;;;;;;2.20;0.70;;;;;;;33.19;21.46;100044.03;4410045;32;34074;-77
2022/07/14 08:48:28;;;;;;;2.20;0.95;;;;;;;34.34;20.62;100039.56;4404171;32;33996;-79
2022/07/14 08:50:56;;;;;;;1.45;0.68;;;;;;;33.64;20.77;100036.66;4420499;32;33334;-77
2022/07/14 08:53:24;;;;;;;3.20;0.90;;;;;;;35.32;19.23;100034.50;4393946;32;34673;-77
2022/07/14 08:55:52;;;;;;;3.55;0.70;;;;;;;34.27;19.73;100037.19;4406761;32;33967;-78
2022/07/14 08:58:19;;;;;;;2.65;0.60;;;;;;;35.42;18.60;100024.97;4412501;32;34171;-78
2022/07/14 09:00:47;;;;;;;2.17;0.88;;;;;;;35.42;18.74;100019.56;4406048;32;33651;-77
2022/07/14 09:03:15;;;;;;;2.03;0.60;;;;;;;33.56;20.40;100028.91;4421218;32;34405;-79
2022/07/14 09:06:07;;;;;;;2.47;0.90;;;;;;;34.77;19.38;100021.25;4408721;32;33560;-78
2022/07/14 09:08:55;;;;;;;1.20;0.70;;;;;;;34.41;19.46;100019.50;4404904;32;34627;-80
2022/07/14 09:11:23;;;;;;;2.65;0.70;;;;;;;33.88;20.19;100022.06;4419933;32;34360;-80
2022/07/14 09:13:51;;;;;;;2.90;1.12;;;;;;;34.45;19.40;100015.69;4420510;32;33337;-77
2022/07/14 09:16:21;;;;;;;3.50;0.80;;;;;;;33.77;20.28;100008.25;4418288;32;34850;-78
2022/07/14 09:19:06;;;;;;;4.87;0.90;;;;;;;33.89;20.68;100010.34;4421249;32;33259;-78
2022/07/14 09:21:38;;;;;;;1.55;0.70;;;;;;;34.96;19.55;100005.00;4420204;32;34159;-80
2022/07/14 09:24:07;;;;;;;1.90;0.80;;;;;;;34.28;19.97;100013.84;4420877;32;33830;-79
2022/07/14 09:26:50;;;;;;;3.83;0.90;;;;;;;34.44;20.63;100004.06;4404445;32;34772;-80
2022/07/14 09:29:24;;;;;;;4.20;1.12;;;;;;;34.24;20.27;100002.38;4426746;32;33673;-79
2022/07/14 09:31:52;;;;;;;2.65;0.70;;;;;;;34.10;20.52;100002.19;4424266;32;33376;-77
2022/07/14 09:34:36;;;;;;;1.40;0.70;;;;;;;34.39;21.26;100000.75;4423079;32;34249;-80
2022/07/14 09:37:13;;;;;;;1.50;0.80;;;;;;;34.84;20.05;99990.38;4407987;32;33832;-78
2022/07/14 09:40:12;;;;;;;2.43;0.90;;;;;;;34.77;20.27;99988.97;4409029;32;32659;-76
2022/07/14 09:42:47;;;;;;;2.55;0.70;;;;;;;33.54;20.26;99986.97;4416168;32;33389;-76
2022/07/14 09:45:15;;;;;;;2.72;0.88;;;;;;;34.27;20.86;99991.47;4423485;32;33984;-77
2022/07/14 09:47:58;;;;;;;3.53;0.90;;;;;;;33.36;20.44;99986.00;4423256;32;33975;-77
2022/07/14 09:50:33;;;;;;;4.53;0.73;;;;;;;33.77;20.43;99986.75;4403874;32;34794;-77
2022/07/14 09:53:21;;;;;;;2.17;0.93;;;;;;;33.99;20.14;99986.56;4404005;32;33859;-78
2022/07/14 09:55:53;;;;;;;5.25;1.02;;;;;;;34.55;19.55;99989.19;4418676;32;33767;-78
2022/07/14 09:58:21;;;;;;;2.33;0.88;;;;;;;33.32;19.97;99987.94;4423266;32;34464;-78
2022/07/14 10:01:07;;;;;;;2.50;0.98;;;;;;;34.37;19.41;99974.88;4415331;32;34561;-76
2022/07/14 10:03:40;;;;;;;4.57;0.70;;;;;;;34.76;19.64;99981.88;4415577;32;34872;-76
2022/07/14 10:06:09;;;;;;;2.10;0.85;;;;;;;34.21;19.08;99972.97;4412835;32;33719;-76
2022/07/14 10:08:57;;;;;;;3.42;1.15;;;;;;;33.88;19.27;99972.78;4423543;32;33650;-78
2022/07/14 10:11:29;;;;;;;1.92;0.77;;;;;;;34.80;18.98;99967.28;4403828;32;34126;-78
2022/07/14 10:13:59;;;;;;;3.50;0.82;;;;;;;35.41;18.43;99969.38;4418295;32;33411;-76
2022/07/14 10:16:32;;;;;;;3.33;0.70;;;;;;;34.60;18.78;99966.50;4419873;32;34209;-77
2022/07/14 10:19:01;;;;;;;1.83;0.82;;;;;;;34.62;19.21;99969.97;4409125;32;33986;-78
2022/07/14 10:21:39;;;;;;;1.65;0.68;;;;;;;35.13;18.29;99953.81;4423111;32;34019;-77
2022/07/14 10:24:08;;;;;;;4.05;0.90;;;;;;;35.38;17.38;99958.75;4412774;32;34187;-77
2022/07/14 10:26:37;;;;;;;2.12;0.70;;;;;;;34.68;18.20;99946.44;4422214;32;34607;-77
2022/07/14 10:29:06;;;;;;;3.65;1.00;;;;;;;34.89;18.12;99949.75;4423775;32;34520;-78
2022/07/14 10:31:56;;;;;;;1.27;0.75;;;;;;;35.20;18.01;99949.03;4404044;32;33748;-78
2022/07/14 10:34:42;;;;;;;1.50;0.70;;;;;;;35.33;17.88;99944.69;4421323;32;33735;-78
2022/07/14 10:37:52;;;;;;;3.65;0.73;;;;;;;35.42;18.11;99949.53;4413853;32;34368;-78
2022/07/14 10:40:50;;;;;;;4.40;0.80;;;;;;;35.40;17.43;99939.81;4421245;32;34082;-78
2022/07/14 10:43:27;;;;;;;3.50;0.70;;;;;;;35.39;17.88;99933.56;4418390;32;34714;-76
2022/07/14 10:45:55;;;;;;;5.43;0.90;;;;;;;35.58;17.05;99932.50;4400519;32;33202;-77
2022/07/14 10:48:31;;;;;;;2.30;0.77;;;;;;;35.25;18.27;99938.84;4419972;32;33856;-77
2022/07/14 10:51:13;;;;;;;1.65;0.82;;;;;;;35.18;17.58;99937.47;4419588;32;34691;-77
2022/07/14 10:54:07;;;;;;;1.98;0.80;;;;;;;35.92;17.01;99938.69;4416971;32;34602;-78
2022/07/14 10:57:12;;;;;;;1.55;0.82;;;;;;;36.80;16.35;99912.78;4418295;32;33413;-78
2022/07/14 10:59:44;;;;;;;4.20;0.80;;;;;;;36.30;16.80;99914.88;4419474;32;34449;-80
2022/07/14 11:02:14;;;;;;;1.25;0.65;;;;;;;36.59;16.41;99917.63;4412381;32;33806;-77
2022/07/14 11:07:52;;;;;;;2.00;0.62;;;;;;;35.98;16.78;99908.69;4415687;32;33503;-78
2022/07/14 11:10:20;;;;;;;2.22;0.75;;;;;;;36.46;16.76;99903.16;4420631;32;34092;-78
2022/07/14 11:13:00;;;;;;;5.50;0.75;;;;;;;36.89;15.93;99906.78;4422293;32;35005;-78
2022/07/14 11:15:59;;;;;;;1.27;0.60;;;;;;;36.94;15.88;99893.84;4414392;32;34214;-78
2022/07/14 11:18:34;;;;;;;3.83;0.80;;;;;;;36.10;16.42;99899.00;4421375;32;33749;-77
2022/07/14 11:21:08;;;;;;;2.22;0.68;;;;;;;34.92;17.58;99891.25;4417668;32;33944;-78
2022/07/14 11:23:50;;;;;;;1.30;0.73;;;;;;;35.33;17.46;99896.22;4423219;32;34672;-76
2022/07/14 11:26:41;;;;;;;1.12;0.65;;;;;;;35.73;16.10;99898.47;4421293;32;34440;-77
2022/07/14 11:29:31;;;;;;;3.15;0.65;;;;;;;35.18;16.49;99897.94;4415640;32;33428;-79
2022/07/14 11:31:58;;;;;;;1.83;0.60;;;;;;;35.96;16.64;99891.72;4417593;32;34052;-77
2022/07/14 11:37:21;;;;;;;2.78;0.80;;;;;;;35.69;16.72;99887.00;4407378;32;34441;-78
2022/07/14 11:40:45;;;;;;;1.30;0.60;;;;;;;36.22;16.17;99869.50;4398960;32;32134;-79
2022/07/14 11:43:31;;;;;;;;;;;;;;;35.76;16.45;99877.59;4421356;32;34215;-78
2022/07/14 11:46:04;;;;;;;2.58;0.90;;;;;;;36.27;16.43;99869.22;4417327;32;34841;-77
2022/07/14 11:48:38;;;;;;;1.50;0.60;;;;;;;36.28;16.32;99872.75;4419790;32;33983;-77
2022/07/14 11:51:08;;;;;;;3.35;0.68;;;;;;;35.89;17.06;99868.78;4412077;32;33491;-78